Time;durP1;ratioP1;P1;durP2;ratioP2;P2;SDS_P1;SDS_P2;PMS_P1;PMS_P2;Temp;Humidity;BMP_temperature;BMP_pressure;BME280_temperature;BME280_humidity;BME280_pressure;Samples;Min_cycle;Max_cycle;Signal;HPM_P1;HPM_P2
2021/10/07 00:00:38;;;;;;;0.90;0.90;;;;;;;10.49;75.92;99632.19;5052196;28;38794;-81
2021/10/07 00:03:06;;;;;;;1.00;1.00;;;;;;;10.34;75.63;99624.06;5051870;28;40916;-81
2021/10/07 00:05:33;;;;;;;1.17;1.10;;;;;;;10.42;75.66;99642.22;5052180;28;41937;-81
2021/10/07 00:08:01;;;;;;;0.80;0.80;;;;;;;10.34;76.01;99634.66;5069054;28;42395;-82
2021/10/07 00:10:29;;;;;;;1.73;1.20;;;;;;;10.34;75.44;99645.25;5052091;28;39048;-81
2021/10/07 00:12:56;;;;;;;0.87;0.87;;;;;;;10.20;75.82;99630.97;5051879;28;40730;-80
2021/10/07 00:15:25;;;;;;;1.70;0.97;;;;;;;10.16;75.56;99629.38;5050436;28;43065;-80
2021/10/07 00:17:54;;;;;;;2.70;1.57;;;;;;;10.22;75.80;99645.00;5069072;28;43244;-81
2021/10/07 00:20:21;;;;;;;0.83;0.80;;;;;;;10.19;75.86;99638.06;5069192;28;39579;-80
2021/10/07 00:22:49;;;;;;;1.30;1.20;;;;;;;10.16;76.24;99646.09;5085057;28;40768;-81
2021/10/07 00:25:17;;;;;;;1.43;1.13;;;;;;;10.13;76.44;99656.88;5067911;28;42761;-81
2021/10/07 00:27:45;;;;;;;1.30;0.90;;;;;;;10.11;76.23;99652.56;5067804;28;42358;-80
2021/10/07 00:30:16;;;;;;;2.03;0.97;;;;;;;10.07;77.14;99652.72;5051850;28;38988;-81
2021/10/07 00:32:51;;;;;;;2.07;1.50;;;;;;;9.97;77.34;99629.41;5051631;28;41623;-81
2021/10/07 00:40:46;;;;;;;2.20;1.23;;;;;;;9.95;77.15;99632.13;5052621;28;39007;-80
2021/10/07 00:43:14;;;;;;;1.20;1.10;;;;;;;9.96;77.13;99644.41;5054521;28;41976;-81
2021/10/07 00:45:42;;;;;;;0.90;0.90;;;;;;;9.95;77.09;99647.13;5054335;28;43187;-81
2021/10/07 00:48:11;;;;;;;2.37;1.13;;;;;;;9.92;76.49;99647.28;5071604;28;43201;-80
2021/10/07 00:50:38;;;;;;;1.33;1.13;;;;;;;9.82;76.82;99635.41;5072979;28;39790;-81
2021/10/07 00:53:06;;;;;;;2.03;1.23;;;;;;;9.87;76.38;99654.59;5071509;28;41966;-81
2021/10/07 00:55:33;;;;;;;0.70;0.70;;;;;;;9.81;76.57;99650.44;5072863;28;43895;-80
2021/10/07 00:58:01;;;;;;;0.80;0.80;;;;;;;9.79;76.30;99657.56;5070665;28;41095;-80
2021/10/07 01:00:28;;;;;;;2.17;1.30;;;;;;;9.75;76.20;99661.31;5071434;28;40155;-79
2021/10/07 01:02:56;;;;;;;0.90;0.90;;;;;;;9.69;76.11;99654.50;5071309;28;41800;-81
2021/10/07 01:05:25;;;;;;;0.73;0.73;;;;;;;9.60;75.75;99640.84;5072160;28;43051;-81
2021/10/07 01:07:54;;;;;;;0.70;0.70;;;;;;;9.66;75.63;99646.69;5054401;28;41109;-81
2021/10/07 01:10:21;;;;;;;0.87;0.70;;;;;;;9.69;75.90;99649.22;5054562;28;39165;-80
2021/10/07 01:12:49;;;;;;;1.70;0.80;;;;;;;9.63;75.47;99646.00;5055262;28;40686;-79
2021/10/07 01:15:18;;;;;;;1.00;1.00;;;;;;;9.58;75.53;99635.63;5070889;28;42153;-81
2021/10/07 01:17:46;;;;;;;0.73;0.73;;;;;;;9.66;75.27;99652.00;5054529;28;41423;-80
2021/10/07 01:20:17;;;;;;;0.80;0.80;;;;;;;9.56;75.56;99645.41;5054211;28;40210;-79
2021/10/07 01:22:45;;;;;;;0.50;0.50;;;;;;;9.64;75.18;99661.78;5070808;28;41945;-82
2021/10/07 01:25:12;;;;;;;0.63;0.60;;;;;;;9.61;75.02;99664.59;5070958;28;43042;-79
2021/10/07 01:27:39;;;;;;;1.77;0.83;;;;;;;9.64;75.26;99664.41;5054220;28;42511;-80
2021/10/07 01:30:09;;;;;;;1.53;1.10;;;;;;;9.57;75.49;99651.56;5071095;28;40235;-80
2021/10/07 01:32:43;;;;;;;1.03;1.03;;;;;;;9.58;75.09;99643.56;5064046;28;41561;-81
2021/10/07 01:35:11;;;;;;;0.80;0.70;;;;;;;9.75;75.17;99666.59;5107908;27;41780;-81
2021/10/07 01:37:40;;;;;;;0.80;0.80;;;;;;;9.81;75.09;99665.44;5091318;28;42497;-80
2021/10/07 01:40:09;;;;;;;1.03;0.90;;;;;;;9.87;75.05;99670.47;5091281;28;38783;-81
2021/10/07 01:42:38;;;;;;;1.13;1.03;;;;;;;9.92;75.83;99668.44;5125619;27;41460;-80
2021/10/07 01:45:07;;;;;;;1.73;1.23;;;;;;;9.96;76.06;99672.66;5107944;28;42976;-80
2021/10/07 01:47:34;;;;;;;0.87;0.87;;;;;;;10.02;75.64;99677.66;5125244;27;43073;-81
2021/10/07 01:50:02;;;;;;;1.40;1.03;;;;;;;10.06;75.56;99673.94;5092095;28;40525;-80
2021/10/07 01:52:29;;;;;;;0.77;0.77;;;;;;;10.03;75.08;99651.13;5072771;28;41643;-79
2021/10/07 01:54:59;;;;;;;0.80;0.80;;;;;;;10.21;75.26;99670.63;5090633;28;42051;-80
2021/10/07 01:57:26;;;;;;;0.73;0.73;;;;;;;10.27;74.79;99680.88;5089770;28;41105;-81
2021/10/07 01:59:53;;;;;;;0.87;0.87;;;;;;;10.30;74.88;99679.88;5073779;28;38817;-79
2021/10/07 02:02:21;;;;;;;0.60;0.60;;;;;;;10.29;74.85;99684.31;5090381;28;40604;-81
2021/10/07 02:04:49;;;;;;;1.27;1.17;;;;;;;10.15;74.63;99652.31;5090294;28;43430;-81
2021/10/07 02:07:16;;;;;;;0.77;0.70;;;;;;;10.35;74.66;99683.19;5090470;28;43187;-80
2021/10/07 02:09:44;;;;;;;0.73;0.73;;;;;;;10.35;74.90;99689.34;5073998;28;38882;-80
2021/10/07 02:12:13;;;;;;;0.83;0.80;;;;;;;10.37;74.83;99695.44;5107168;27;41896;-79
2021/10/07 02:14:40;;;;;;;0.97;0.67;;;;;;;10.42;74.71;99690.75;5124108;27;42839;-80
2021/10/07 02:17:08;;;;;;;0.70;0.70;;;;;;;10.49;74.49;99695.75;5091325;28;42601;-80
2021/10/07 02:19:36;;;;;;;0.53;0.53;;;;;;;10.54;74.27;99696.38;5090402;28;40170;-81
2021/10/07 02:22:04;;;;;;;1.80;0.80;;;;;;;10.59;74.30;99697.03;5124633;27;42008;-81
2021/10/07 02:24:31;;;;;;;0.60;0.60;;;;;;;10.59;74.41;99691.72;5090533;28;43569;-80
2021/10/07 02:26:59;;;;;;;0.80;0.80;;;;;;;10.65;74.19;99694.06;5090813;28;43237;-80
2021/10/07 02:29:28;;;;;;;0.60;0.57;;;;;;;10.60;74.21;99683.72;5073621;28;38834;-79
2021/10/07 02:31:55;;;;;;;1.37;0.90;;;;;;;10.70;74.13;99694.69;5069640;28;40760;-81
2021/10/07 02:34:23;;;;;;;1.20;0.70;;;;;;;10.73;74.13;99699.84;5053101;28;41957;-81
2021/10/07 02:36:51;;;;;;;0.90;0.90;;;;;;;10.65;74.23;99675.50;5069954;28;41479;-81
2021/10/07 02:39:19;;;;;;;0.73;0.73;;;;;;;10.73;74.35;99689.25;5070022;28;40008;-81
2021/10/07 02:41:46;;;;;;;1.90;0.93;;;;;;;10.75;74.37;99690.91;5069759;28;40763;-80
2021/10/07 02:44:14;;;;;;;1.17;1.07;;;;;;;10.75;74.01;99693.56;5070503;28;42772;-81
2021/10/07 02:46:43;;;;;;;0.67;0.67;;;;;;;10.71;74.19;99688.47;5077239;28;42185;-81
2021/10/07 02:49:10;;;;;;;0.80;0.80;;;;;;;10.73;74.20;99692.75;5070389;28;40261;-81
2021/10/07 02:51:38;;;;;;;0.80;0.80;;;;;;;10.73;74.35;99690.13;5069207;28;40645;-81
2021/10/07 02:54:05;;;;;;;0.97;0.87;;;;;;;10.66;74.27;99680.72;5102906;28;42833;-80
2021/10/07 02:56:33;;;;;;;1.30;1.00;;;;;;;10.78;74.36;99697.81;5069367;28;41058;-81
2021/10/07 02:59:00;;;;;;;0.97;0.90;;;;;;;10.80;74.27;99690.66;5069232;28;38971;-80
2021/10/07 03:01:27;;;;;;;0.73;0.70;;;;;;;10.79;74.12;99688.94;5070835;28;41768;-81
2021/10/07 03:03:56;;;;;;;0.70;0.70;;;;;;;10.78;73.97;99692.50;5069391;28;44137;-79
2021/10/07 03:06:24;;;;;;;0.80;0.80;;;;;;;10.64;74.19;99679.09;5081665;28;42504;-82
2021/10/07 03:08:56;;;;;;;0.70;0.70;;;;;;;10.76;74.20;99695.22;5078257;28;41005;-81
2021/10/07 03:11:24;;;;;;;0.93;0.90;;;;;;;10.78;74.22;99703.09;5078258;28;41897;-81
2021/10/07 03:13:51;;;;;;;1.63;1.30;;;;;;;10.79;74.35;99707.47;5078159;28;41693;-79
2021/10/07 03:16:18;;;;;;;1.43;1.37;;;;;;;10.80;74.73;99702.09;5094410;28;42061;-80
2021/10/07 03:18:46;;;;;;;1.30;1.00;;;;;;;10.82;74.89;99709.97;5072047;28;40209;-80
2021/10/07 03:21:15;;;;;;;1.37;1.10;;;;;;;10.70;74.75;99684.09;5073757;28;41668;-82
2021/10/07 03:23:42;;;;;;;1.30;1.20;;;;;;;10.74;74.61;99701.56;5073662;28;42939;-80
2021/10/07 03:26:10;;;;;;;0.80;0.70;;;;;;;10.75;74.79;99687.38;5074070;28;41334;-80
2021/10/07 03:28:37;;;;;;;1.00;1.00;;;;;;;10.76;74.63;99692.59;5052949;28;39148;-80
2021/10/07 03:31:05;;;;;;;0.97;0.97;;;;;;;10.89;74.78;99711.38;5088764;28;41879;-81
2021/10/07 03:33:32;;;;;;;1.00;0.73;;;;;;;10.90;74.51;99710.44;5067028;28;42859;-80
2021/10/07 03:36:00;;;;;;;1.20;0.90;;;;;;;10.93;74.29;99717.38;5069035;28;43422;-80
2021/10/07 03:38:30;;;;;;;1.03;0.93;;;;;;;10.80;74.62;99695.94;5068389;28;38863;-80
2021/10/07 03:40:57;;;;;;;0.70;0.70;;;;;;;10.86;74.24;99702.75;5068486;28;42483;-80
2021/10/07 03:43:25;;;;;;;0.73;0.73;;;;;;;10.97;74.20;99724.25;5069245;28;43180;-80
2021/10/07 03:45:53;;;;;;;0.80;0.80;;;;;;;10.99;74.00;99728.56;5075031;28;43033;-79
2021/10/07 03:48:20;;;;;;;0.80;0.80;;;;;;;11.00;74.28;99738.19;5104357;28;38832;-80
2021/10/07 03:50:48;;;;;;;1.03;0.77;;;;;;;10.90;74.21;99721.03;5088639;28;41558;-81
2021/10/07 03:53:17;;;;;;;1.57;1.13;;;;;;;11.02;74.21;99738.13;5088839;28;42875;-80
2021/10/07 03:55:46;;;;;;;0.93;0.87;;;;;;;11.03;74.23;99739.84;5088817;28;42238;-82
2021/10/07 03:58:13;;;;;;;1.13;0.87;;;;;;;11.04;74.26;99741.56;5088758;28;39236;-80
2021/10/07 04:00:41;;;;;;;1.20;1.10;;;;;;;11.06;73.94;99745.84;5089529;28;40825;-81
2021/10/07 04:03:08;;;;;;;0.77;0.77;;;;;;;11.07;74.13;99747.56;5088828;28;42148;-80
2021/10/07 04:05:35;;;;;;;1.10;1.00;;;;;;;11.01;74.22;99742.56;5089016;28;42510;-81
2021/10/07 04:08:04;;;;;;;1.40;1.17;;;;;;;11.02;74.43;99746.94;5090281;28;40259;-82
2021/10/07 04:10:32;;;;;;;1.50;1.00;;;;;;;10.97;74.56;99746.31;5090088;28;41745;-81
2021/10/07 04:13:01;;;;;;;1.07;1.03;;;;;;;11.06;74.65;99764.41;5089260;28;42898;-80
2021/10/07 04:15:28;;;;;;;1.10;1.00;;;;;;;11.06;74.84;99766.22;5093137;28;42402;-82
2021/10/07 04:17:57;;;;;;;1.33;1.10;;;;;;;11.08;74.67;99767.00;5076502;28;38852;-81
2021/10/07 04:20:25;;;;;;;1.07;0.97;;;;;;;11.12;74.47;99772.06;5075125;28;41067;-80
2021/10/07 04:22:52;;;;;;;0.83;0.83;;;;;;;11.17;74.24;99774.47;5082263;28;42818;-81
2021/10/07 04:25:20;;;;;;;0.70;0.70;;;;;;;11.20;74.29;99786.72;5071019;28;41205;-81
2021/10/07 04:27:52;;;;;;;0.87;0.87;;;;;;;11.14;74.38;99766.66;5071529;28;39952;-79
2021/10/07 04:30:21;;;;;;;0.60;0.60;;;;;;;11.24;74.34;99777.69;5070968;28;40685;-82
2021/10/07 04:32:49;;;;;;;1.10;1.00;;;;;;;11.25;74.35;99782.06;5072501;28;43644;-80
2021/10/07 04:35:17;;;;;;;1.07;0.97;;;;;;;11.28;74.23;99781.88;5054893;28;41080;-81
2021/10/07 04:37:45;;;;;;;0.90;0.90;;;;;;;11.29;74.36;99781.81;5071506;28;40722;-80
2021/10/07 04:40:13;;;;;;;0.97;0.93;;;;;;;11.29;74.39;99786.25;5054266;28;41698;-81
2021/10/07 04:42:41;;;;;;;1.67;0.90;;;;;;;11.28;74.38;99789.84;5071000;28;42736;-82
2021/10/07 04:45:09;;;;;;;1.00;1.00;;;;;;;11.19;74.26;99772.63;5071141;28;41473;-80
2021/10/07 04:47:38;;;;;;;1.03;1.03;;;;;;;11.30;74.40;99798.59;5073784;28;40734;-80
2021/10/07 04:50:07;;;;;;;1.37;1.27;;;;;;;11.31;74.50;99797.66;5091479;28;41746;-81
2021/10/07 04:52:35;;;;;;;1.10;1.10;;;;;;;11.22;74.41;99783.06;5091556;28;41833;-81
2021/10/07 04:55:02;;;;;;;1.00;0.90;;;;;;;11.33;74.12;99796.66;5074709;28;41282;-81
2021/10/07 04:57:30;;;;;;;1.23;1.17;;;;;;;11.33;74.31;99801.09;5125858;27;40185;-81
2021/10/07 04:59:57;;;;;;;1.83;1.00;;;;;;;11.28;74.21;99797.78;5087581;28;40431;-81
2021/10/07 05:02:25;;;;;;;1.00;0.90;;;;;;;11.34;74.46;99811.63;5071861;28;42650;-80
2021/10/07 05:04:54;;;;;;;1.23;1.13;;;;;;;11.35;74.22;99812.47;5071325;28;42258;-82
2021/10/07 05:07:22;;;;;;;2.30;1.57;;;;;;;11.34;74.63;99816.94;5054685;28;40055;-80
2021/10/07 05:09:50;;;;;;;1.20;1.10;;;;;;;11.18;74.18;99786.81;5085243;28;40737;-81
2021/10/07 05:12:17;;;;;;;1.00;0.87;;;;;;;11.38;74.15;99822.91;5091121;28;42891;-80
2021/10/07 05:14:45;;;;;;;1.43;1.00;;;;;;;11.39;74.73;99821.97;5089879;28;42519;-81
2021/10/07 05:17:13;;;;;;;0.93;0.93;;;;;;;11.28;74.50;99805.75;5107220;28;39009;-81
2021/10/07 05:19:40;;;;;;;1.33;1.23;;;;;;;11.04;74.41;99773.38;5085847;28;41763;-81
2021/10/07 05:22:10;;;;;;;1.97;1.50;;;;;;;11.40;74.42;99831.66;5054033;28;41704;-81
2021/10/07 05:24:38;;;;;;;2.37;1.30;;;;;;;11.46;74.12;99834.00;5081284;28;41271;-81
2021/10/07 05:27:06;;;;;;;1.93;0.90;;;;;;;11.45;74.36;99827.00;5074138;28;39019;-82
2021/10/07 05:29:33;;;;;;;0.90;0.90;;;;;;;11.53;73.95;99840.72;5073469;28;40628;-81
2021/10/07 05:32:01;;;;;;;0.83;0.83;;;;;;;11.57;73.85;99841.44;5070573;28;41864;-82
2021/10/07 05:34:29;;;;;;;0.80;0.80;;;;;;;11.60;74.09;99842.13;5052483;28;42433;-81
2021/10/07 05:36:56;;;;;;;1.43;1.03;;;;;;;11.63;73.88;99839.31;5054029;28;39308;-80
2021/10/07 05:39:26;;;;;;;1.30;1.17;;;;;;;11.67;73.84;99848.84;5071479;28;42210;-81
2021/10/07 05:41:54;;;;;;;1.20;1.10;;;;;;;11.72;73.84;99852.13;5069382;28;42871;-80
2021/10/07 05:44:21;;;;;;;0.93;0.90;;;;;;;11.75;73.99;99848.44;5054590;28;41492;-82
2021/10/07 05:46:49;;;;;;;2.13;1.33;;;;;;;11.78;73.79;99849.16;5070387;28;38833;-81
2021/10/07 05:49:17;;;;;;;1.17;1.07;;;;;;;11.75;74.14;99844.00;5070578;28;41907;-80
2021/10/07 05:51:44;;;;;;;1.63;1.33;;;;;;;11.74;73.98;99829.03;5063265;28;41868;-81
2021/10/07 05:54:12;;;;;;;1.57;1.27;;;;;;;11.87;73.85;99846.03;5054447;28;41452;-80
2021/10/07 05:56:41;;;;;;;3.10;1.80;;;;;;;11.90;74.09;99853.00;5087657;28;39074;-80
2021/10/07 05:59:08;;;;;;;1.53;1.20;;;;;;;11.88;73.72;99845.09;5053027;28;40555;-80
2021/10/07 06:01:36;;;;;;;1.50;1.40;;;;;;;12.02;73.79;99860.31;5070431;28;43138;-80
2021/10/07 06:04:04;;;;;;;1.97;1.50;;;;;;;12.07;73.90;99849.47;5069798;28;42097;-82
2021/10/07 06:06:32;;;;;;;2.03;1.30;;;;;;;12.11;73.49;99853.69;5053495;28;39148;-80
2021/10/07 06:09:00;;;;;;;2.63;1.90;;;;;;;12.15;73.88;99860.53;5070158;28;42424;-82
2021/10/07 06:11:28;;;;;;;3.00;1.50;;;;;;;12.18;73.81;99871.00;5053232;28;43112;-81
2021/10/07 06:13:58;;;;;;;1.77;1.67;;;;;;;12.15;73.90;99860.53;5063381;28;43283;-81
2021/10/07 06:16:26;;;;;;;2.37;2.00;;;;;;;12.09;73.47;99839.63;5049153;28;39959;-81
2021/10/07 06:18:54;;;;;;;1.80;1.70;;;;;;;12.32;73.62;99871.13;5052663;28;41989;-80
2021/10/07 06:21:22;;;;;;;1.57;1.30;;;;;;;12.38;73.40;99873.44;5052612;28;42055;-80
2021/10/07 06:23:49;;;;;;;0.93;0.87;;;;;;;12.36;73.42;99851.44;5066642;28;41371;-83
2021/10/07 06:26:18;;;;;;;1.80;1.33;;;;;;;12.54;73.50;99868.16;5101652;28;39163;-79
2021/10/07 06:28:46;;;;;;;1.83;1.73;;;;;;;12.51;73.41;99853.22;5051420;28;40863;-83
2021/10/07 06:31:16;;;;;;;2.03;1.83;;;;;;;12.61;73.70;99866.03;5052402;28;43241;-86
2021/10/07 06:33:44;;;;;;;3.90;1.60;;;;;;;12.70;73.88;99873.50;5085936;28;41406;-80
2021/10/07 06:36:12;;;;;;;1.77;1.67;;;;;;;12.63;73.41;99848.19;5052040;28;40785;-82
2021/10/07 06:38:39;;;;;;;2.47;1.70;;;;;;;12.81;73.25;99876.41;5085494;27;40887;-81
2021/10/07 06:41:07;;;;;;;3.07;1.50;;;;;;;12.85;73.34;99880.63;5052886;28;43160;-82
2021/10/07 06:43:35;;;;;;;2.07;1.50;;;;;;;12.88;73.06;99885.75;5052942;28;41019;-79
2021/10/07 06:46:02;;;;;;;2.50;1.80;;;;;;;12.91;73.15;99893.56;5060137;28;39984;-81
2021/10/07 06:48:33;;;;;;;3.73;1.77;;;;;;;12.97;72.98;99887.94;5066293;28;40644;-86
2021/10/07 06:51:02;;;;;;;2.70;2.10;;;;;;;12.94;72.76;99882.78;5065759;28;42188;-86
2021/10/07 06:53:30;;;;;;;3.23;2.33;;;;;;;13.09;72.73;99895.22;5049428;28;42510;-81
2021/10/07 06:55:57;;;;;;;3.73;2.23;;;;;;;13.17;73.06;99894.81;5069332;28;40197;-82
2021/10/07 06:58:25;;;;;;;2.90;1.90;;;;;;;13.20;72.69;99882.19;5052216;28;40979;-83
2021/10/07 07:00:53;;;;;;;2.93;2.20;;;;;;;13.36;72.78;99897.25;5052627;28;42043;-79
2021/10/07 07:03:20;;;;;;;1.73;1.60;;;;;;;13.29;72.30;99876.34;5068822;28;42525;-85
2021/10/07 07:05:50;;;;;;;2.13;1.93;;;;;;;13.56;72.10;99924.47;5070063;28;39230;-85
2021/10/07 07:08:17;;;;;;;1.93;1.77;;;;;;;13.52;71.96;99892.78;5071880;28;41624;-81
2021/10/07 07:10:45;;;;;;;1.60;1.50;;;;;;;13.69;71.84;99913.97;5056146;28;41832;-82
2021/10/07 07:13:13;;;;;;;2.30;1.90;;;;;;;13.80;71.38;99922.19;5050508;28;41432;-84
2021/10/07 07:15:40;;;;;;;1.87;1.60;;;;;;;13.79;71.51;99914.28;5066390;28;40020;-84
2021/10/07 07:18:08;;;;;;;4.50;1.93;;;;;;;13.82;71.47;99901.66;5053309;28;41948;-89
2021/10/07 07:20:36;;;;;;;2.17;1.90;;;;;;;14.08;71.31;99931.22;5067549;28;41764;-85
2021/10/07 07:23:08;;;;;;;2.00;1.80;;;;;;;14.12;70.98;99916.72;5048944;28;41330;-83
2021/10/07 07:25:37;;;;;;;2.37;2.17;;;;;;;14.16;70.82;99918.28;5048329;28;40393;-83
2021/10/07 07:28:05;;;;;;;2.90;2.40;;;;;;;14.30;70.46;99931.63;5048434;28;41728;-81
2021/10/07 07:30:33;;;;;;;2.83;2.33;;;;;;;14.21;70.28;99925.06;5038659;28;41929;-86
2021/10/07 07:33:02;;;;;;;3.17;2.30;;;;;;;14.29;70.23;99930.75;5052638;28;41438;-83
2021/10/07 07:35:33;;;;;;;2.60;2.20;;;;;;;14.43;69.94;99943.28;5068262;28;39865;-90
2021/10/07 07:38:03;;;;;;;1.90;1.77;;;;;;;14.44;69.63;99923.69;5031151;28;41936;-90
2021/10/07 07:43:20;;;;;;;2.23;1.60;;;;;;;14.84;68.77;99913.19;5047218;28;42820;-88
2021/10/07 07:46:00;;;;;;;2.10;1.90;;;;;;;14.92;68.59;99905.56;5052570;28;38973;-88
2021/10/07 07:48:31;;;;;;;2.33;2.00;;;;;;;15.27;68.27;99946.84;5031346;28;41210;-82
2021/10/07 07:50:58;;;;;;;5.20;3.80;;;;;;;15.37;67.91;99947.97;5031497;28;41815;-81
2021/10/07 07:53:26;;;;;;;8.43;4.87;;;;;;;15.36;67.52;99935.56;5048735;28;42378;-81
2021/10/07 07:56:04;;;;;;;3.90;2.90;;;;;;;15.53;67.17;99936.31;5042338;28;39021;-88
2021/10/07 07:58:31;;;;;;;2.27;2.07;;;;;;;15.92;66.82;99960.41;5051879;28;40635;-84
2021/10/07 08:01:00;;;;;;;2.87;2.37;;;;;;;16.08;65.97;99944.19;5052572;28;20232;-87
2021/10/07 08:03:28;;;;;;;2.07;1.87;;;;;;;16.32;65.75;99947.03;5051926;28;41477;-81
2021/10/07 08:05:56;;;;;;;3.73;2.40;;;;;;;16.53;65.19;99970.44;5047331;28;40206;-80
2021/10/07 08:08:23;;;;;;;3.07;2.70;;;;;;;16.57;62.52;99973.75;5047479;28;42327;-84
2021/10/07 08:10:51;;;;;;;2.27;2.07;;;;;;;16.68;63.46;99968.56;5047744;28;41806;-86
2021/10/07 08:13:20;;;;;;;1.97;1.83;;;;;;;17.07;63.12;99972.03;5048895;28;42210;-83
2021/10/07 08:15:50;;;;;;;2.37;2.10;;;;;;;17.34;63.08;99977.22;5066433;28;40647;-83
2021/10/07 08:18:28;;;;;;;3.70;1.90;;;;;;;17.41;61.60;99981.19;5051621;28;41055;-88
2021/10/07 08:20:56;;;;;;;2.93;2.60;;;;;;;17.47;61.39;99992.31;5050648;28;41941;-85
2021/10/07 08:23:28;;;;;;;1.80;1.70;;;;;;;17.29;60.72;99958.84;5051725;28;41534;-88
2021/10/07 08:25:56;;;;;;;2.00;1.80;;;;;;;17.41;60.77;99949.91;5046727;28;39194;-89
2021/10/07 08:28:25;;;;;;;2.73;2.00;;;;;;;17.67;60.20;99944.50;5034100;28;40483;-92
2021/10/07 08:30:53;;;;;;;1.93;1.80;;;;;;;17.95;59.62;99944.09;5038020;28;41727;-88
2021/10/07 08:33:22;;;;;;;2.80;2.50;;;;;;;18.10;59.60;99964.41;5051850;28;41434;-84
2021/10/07 08:35:50;;;;;;;2.00;1.90;;;;;;;18.08;59.42;99971.69;5053828;28;38608;-80
2021/10/07 08:38:18;;;;;;;1.73;1.63;;;;;;;18.03;58.88;99981.94;5051771;28;40687;-86
2021/10/07 08:40:46;;;;;;;2.40;2.10;;;;;;;17.92;58.55;99988.09;5067891;28;42740;-84
2021/10/07 08:43:14;;;;;;;2.33;2.13;;;;;;;17.76;59.61;99962.56;5050612;28;41520;-85
2021/10/07 08:45:43;;;;;;;2.63;1.73;;;;;;;17.98;60.12;99991.28;5066262;28;40700;-82
2021/10/07 08:48:11;;;;;;;2.57;1.90;;;;;;;17.70;59.54;99960.31;5067225;28;42733;-85
2021/10/07 08:50:39;;;;;;;1.90;1.80;;;;;;;18.03;59.30;99997.16;5050970;28;41786;-87
2021/10/07 08:53:08;;;;;;;1.70;1.60;;;;;;;18.21;59.22;99983.22;5050188;28;42115;-88
2021/10/07 08:55:36;;;;;;;2.40;1.93;;;;;;;18.62;58.16;99998.00;5067539;28;39122;-83
2021/10/07 08:58:04;;;;;;;2.27;2.10;;;;;;;19.28;57.64;100012.44;5051611;28;41004;-89
2021/10/07 09:00:32;;;;;;;3.17;2.53;;;;;;;20.13;56.14;100008.13;5051157;28;41631;-86
2021/10/07 09:03:17;;;;;;;1.80;1.70;;;;;;;20.58;54.60;100016.00;5053247;28;41323;-87
2021/10/07 09:05:45;;;;;;;2.33;2.00;;;;;;;20.86;53.63;100004.59;5054311;28;38991;-85
2021/10/07 09:08:15;;;;;;;2.40;2.20;;;;;;;21.49;51.53;100029.59;5071220;28;41748;-90
2021/10/07 09:10:46;;;;;;;1.77;1.63;;;;;;;21.77;50.95;100020.69;5053830;28;41655;-91
2021/10/07 09:13:16;;;;;;;14.40;8.67;;;;;;;22.43;48.95;100042.53;5050822;28;42072;-92
2021/10/07 09:15:47;;;;;;;3.27;2.73;;;;;;;22.42;47.68;100043.53;5034229;28;39277;-85
2021/10/07 09:18:17;;;;;;;1.90;1.80;;;;;;;22.20;47.87;100041.97;5034267;28;40852;-85
2021/10/07 09:20:47;;;;;;;1.70;1.60;;;;;;;22.12;48.02;100038.28;5067665;28;41791;-88
2021/10/07 09:23:18;;;;;;;2.03;1.80;;;;;;;21.90;48.69;100033.06;5052217;28;43010;-81
2021/10/07 09:26:04;;;;;;;2.73;2.53;;;;;;;21.59;48.22;100052.03;5070381;28;39003;-86
2021/10/07 09:28:50;;;;;;;1.67;1.57;;;;;;;21.29;48.41;100031.31;5055304;28;40521;-88
2021/10/07 09:31:24;;;;;;;2.67;2.10;;;;;;;21.40;47.55;100027.69;5056874;28;42051;-92
2021/10/07 09:33:55;;;;;;;1.97;1.77;;;;;;;21.52;47.97;100040.06;5088073;28;41212;-84
2021/10/07 09:36:24;;;;;;;3.17;2.13;;;;;;;21.34;48.03;100039.03;5071618;28;39725;-86
2021/10/07 09:38:54;;;;;;;2.07;1.90;;;;;;;21.09;47.76;100033.06;5069816;28;40837;-89
2021/10/07 09:41:23;;;;;;;2.00;1.80;;;;;;;21.19;49.06;100043.06;5082675;28;41840;-84
2021/10/07 09:43:54;;;;;;;1.87;1.77;;;;;;;21.07;48.48;100047.63;5069012;28;42249;-91
2021/10/07 09:46:44;;;;;;;1.87;1.73;;;;;;;20.94;48.00;100050.53;5066689;28;38787;-83
2021/10/07 09:49:15;;;;;;;1.90;1.80;;;;;;;20.97;48.55;100058.38;5049254;28;40667;-81
2021/10/07 09:51:45;;;;;;;2.70;1.97;;;;;;;21.09;48.25;100053.75;5051927;28;43833;-83
2021/10/07 09:57:14;;;;;;;1.70;1.60;;;;;;;21.04;47.52;99986.81;5054928;28;39968;-94
2021/10/07 10:00:28;;;;;;;1.40;1.30;;;;;;;21.31;47.73;100031.19;5053750;28;41281;-93
2021/10/07 10:02:58;;;;;;;1.80;1.70;;;;;;;21.38;46.64;100053.94;5053591;28;42438;-80
2021/10/07 10:05:28;;;;;;;1.23;1.17;;;;;;;21.46;47.48;100062.19;5069116;28;42361;-81
2021/10/07 10:07:57;;;;;;;1.50;1.40;;;;;;;21.49;46.96;100068.16;5068519;28;41016;-87
2021/10/07 10:10:25;;;;;;;1.03;1.03;;;;;;;21.77;46.74;100058.44;5052154;28;40674;-87
2021/10/07 10:12:52;;;;;;;0.90;0.90;;;;;;;22.33;44.92;100065.97;5069781;28;41714;-83
2021/10/07 10:15:21;;;;;;;1.63;1.13;;;;;;;22.45;43.29;100072.94;5072804;28;43253;-83
2021/10/07 10:17:55;;;;;;;0.83;0.83;;;;;;;22.38;43.60;100076.31;5068998;28;39974;-83
2021/10/07 10:20:25;;;;;;;1.10;1.00;;;;;;;22.34;44.28;100064.13;5086935;28;40667;-80
2021/10/07 10:22:57;;;;;;;1.17;1.10;;;;;;;22.64;42.17;100087.41;5069712;28;42828;-81
2021/10/07 10:25:28;;;;;;;2.37;1.00;;;;;;;22.86;43.92;100087.19;5069424;28;42092;-88
2021/10/07 10:27:59;;;;;;;2.73;1.17;;;;;;;22.95;43.77;100075.50;5051835;28;39835;-85
2021/10/07 10:30:31;;;;;;;1.30;1.20;;;;;;;22.90;43.51;100077.75;5051390;28;40960;-85
2021/10/07 10:33:01;;;;;;;1.13;1.13;;;;;;;23.03;44.44;100089.13;5069909;28;41715;-87
2021/10/07 10:35:34;;;;;;;1.13;1.13;;;;;;;22.93;44.45;100089.13;5052330;28;42556;-85
2021/10/07 10:38:06;;;;;;;1.70;1.60;;;;;;;22.72;43.45;100079.47;5103993;28;40202;-86
2021/10/07 10:40:34;;;;;;;1.03;0.93;;;;;;;22.67;44.55;100081.75;5086329;28;40830;-85
2021/10/07 10:43:30;;;;;;;1.47;1.37;;;;;;;22.64;44.04;100093.66;5070550;28;42841;-83
2021/10/07 10:46:14;;;;;;;1.23;1.13;;;;;;;22.60;44.43;100096.81;5069542;28;41013;-85
2021/10/07 10:49:03;;;;;;;3.97;1.30;;;;;;;22.60;44.83;100091.41;5067880;28;39927;-85
2021/10/07 10:51:32;;;;;;;1.40;1.30;;;;;;;22.56;43.71;100097.09;5051280;28;40569;-84
2021/10/07 10:54:04;;;;;;;1.13;1.03;;;;;;;22.43;44.59;100077.63;5083291;28;43403;-85
2021/10/07 10:56:34;;;;;;;1.83;1.40;;;;;;;22.56;44.92;100090.84;5053019;28;41408;-86
2021/10/07 10:59:20;;;;;;;0.90;0.90;;;;;;;22.57;44.70;100082.59;5070745;28;39917;-84
2021/10/07 11:02:21;;;;;;;1.30;1.10;;;;;;;22.75;43.90;100107.03;5070735;28;42443;-88
2021/10/07 11:04:50;;;;;;;5.77;4.37;;;;;;;22.84;43.47;100105.38;5052057;28;42920;-84
2021/10/07 11:07:21;;;;;;;3.33;1.70;;;;;;;23.16;42.72;100099.63;5049515;28;41778;-84
2021/10/07 11:10:04;;;;;;;0.87;0.87;;;;;;;23.82;41.88;100119.34;5065038;28;39073;-88
2021/10/07 11:12:34;;;;;;;1.87;1.43;;;;;;;24.25;41.85;100107.88;5093953;28;43227;-86
2021/10/07 11:15:02;;;;;;;1.30;1.20;;;;;;;24.54;39.71;100118.50;5094098;28;44183;-86
2021/10/07 11:17:33;;;;;;;1.20;1.13;;;;;;;24.48;39.98;100113.69;5057316;28;41361;-86
2021/10/07 11:20:00;;;;;;;1.00;0.93;;;;;;;24.16;41.26;100121.44;5118607;27;41592;-83
2021/10/07 11:22:28;;;;;;;0.90;0.90;;;;;;;23.62;40.91;100098.78;5077723;28;40695;-87
2021/10/07 11:24:58;;;;;;;1.17;1.07;;;;;;;23.43;41.57;100124.03;5064107;28;42953;-80
2021/10/07 11:27:34;;;;;;;0.70;0.70;;;;;;;23.10;42.31;100111.88;5084584;28;42684;-83
2021/10/07 11:30:03;;;;;;;1.37;1.10;;;;;;;22.71;42.43;100093.97;5067346;28;39362;-85
2021/10/07 11:32:31;;;;;;;1.60;1.50;;;;;;;22.40;42.73;100094.09;5065373;28;40691;-80
2021/10/07 11:35:04;;;;;;;1.30;0.90;;;;;;;22.33;43.08;100105.59;5056180;28;41700;-84
2021/10/07 11:37:56;;;;;;;0.87;0.87;;;;;;;22.01;42.02;100090.47;5083138;28;42280;-81
2021/10/07 11:40:29;;;;;;;0.97;0.87;;;;;;;21.84;42.27;100100.09;5046132;28;39161;-89
2021/10/07 11:43:07;;;;;;;0.80;0.80;;;;;;;21.73;42.95;100069.66;5052262;28;40934;-88
2021/10/07 11:45:38;;;;;;;0.90;0.80;;;;;;;21.79;42.52;100083.44;5047800;28;42107;-86
2021/10/07 11:48:09;;;;;;;0.87;0.80;;;;;;;21.94;42.23;100093.84;5032277;28;41672;-78
2021/10/07 11:50:40;;;;;;;1.50;0.77;;;;;;;22.12;42.88;100082.31;5064607;28;40339;-87
2021/10/07 11:53:09;;;;;;;0.90;0.90;;;;;;;22.50;43.11;100084.16;5048327;28;40664;-82